createdAt,value
2023-04-15T00:01:38.015Z,98002.03
2023-04-15T00:04:05.127Z,98002.88
2023-04-15T00:06:32.045Z,97996.97
2023-04-15T00:08:59.233Z,98004.88
2023-04-15T00:11:26.298Z,98001.47
2023-04-15T00:13:53.151Z,97994.97
2023-04-15T00:16:19.977Z,98001.78
2023-04-15T00:18:47.222Z,98002.03
2023-04-15T00:21:14.217Z,97997.03
2023-04-15T00:23:41.158Z,97997.13
2023-04-15T00:26:08.578Z,98007.53
2023-04-15T00:28:35.410Z,98003.28
2023-04-15T00:31:02.341Z,97998.28
2023-04-15T00:33:29.198Z,98001.03
2023-04-15T00:35:55.994Z,97997.59
2023-04-15T00:38:23.139Z,98000.19
2023-04-15T00:40:50.148Z,97982.63
2023-04-15T00:43:17.596Z,97991.88
2023-04-15T00:45:44.479Z,97991.94
2023-04-15T00:48:12.285Z,97989.47
2023-04-15T00:50:39.153Z,97987.00
2023-04-15T00:53:06.153Z,97999.91
2023-04-15T00:55:32.994Z,97995.66
2023-04-15T00:57:59.941Z,97993.22
2023-04-15T01:00:27.195Z,97989.91
2023-04-15T01:02:54.177Z,97988.38
2023-04-15T01:05:21.123Z,98005.66
2023-04-15T01:07:48.832Z,97997.34
2023-04-15T01:10:15.738Z,97999.19
2023-04-15T01:12:43.282Z,97997.59
2023-04-15T01:15:11.205Z,98001.19
2023-04-15T01:17:39.312Z,98002.06
2023-04-15T01:20:10.116Z,98001.31
2023-04-15T01:22:36.936Z,97998.81
2023-04-15T01:25:13.157Z,97997.31
2023-04-15T01:27:42.252Z,97998.06
2023-04-15T01:30:10.577Z,98002.41
2023-04-15T01:32:38.004Z,97993.91
2023-04-15T01:35:05.207Z,97996.66
2023-04-15T01:37:33.115Z,97991.50
2023-04-15T01:39:59.920Z,97999.28
2023-04-15T01:42:27.747Z,97987.69
2023-04-15T01:44:54.839Z,98003.78
2023-04-15T01:47:21.873Z,97997.28
2023-04-15T01:49:48.849Z,98002.25
2023-04-15T01:52:15.769Z,98001.41
2023-04-15T01:54:42.634Z,97997.41
2023-04-15T01:57:09.843Z,97999.09
2023-04-15T01:59:37.249Z,97993.16
2023-04-15T02:02:04.676Z,97995.00
2023-04-15T02:04:31.712Z,97996.00
2023-04-15T02:06:58.546Z,97995.31
2023-04-15T02:09:25.563Z,97991.97
2023-04-15T02:11:54.278Z,97991.28
2023-04-15T02:14:21.455Z,97988.13
2023-04-15T02:16:48.446Z,97990.84
2023-04-15T02:19:15.501Z,97985.91
2023-04-15T02:21:42.331Z,97988.41
2023-04-15T02:24:09.181Z,97984.19
2023-04-15T02:26:36.227Z,97982.72
2023-04-15T02:29:03.258Z,97989.56
2023-04-15T02:31:30.122Z,97988.81
2023-04-15T02:33:56.988Z,97988.81
2023-04-15T02:36:24.023Z,97980.63
2023-04-15T02:38:50.946Z,97990.09
2023-04-15T02:41:18.689Z,97992.06
2023-04-15T02:43:45.557Z,97985.44
2023-04-15T02:46:14.759Z,97986.38
2023-04-15T02:48:42.071Z,97986.50
2023-04-15T02:51:18.366Z,97986.66
2023-04-15T02:53:45.627Z,97982.44
2023-04-15T02:56:12.775Z,97985.13
2023-04-15T02:58:39.997Z,97972.66
2023-04-15T03:01:08.853Z,97978.47
2023-04-15T03:03:36.033Z,97985.44
2023-04-15T03:06:02.998Z,97988.97
2023-04-15T03:08:29.969Z,97991.69
2023-04-15T03:11:00.724Z,97993.66
2023-04-15T03:13:27.579Z,97987.81
2023-04-15T03:15:54.489Z,97990.53
2023-04-15T03:18:21.706Z,97981.03
2023-04-15T03:20:48.479Z,97982.00
2023-04-15T03:23:15.495Z,97981.19
2023-04-15T03:25:42.524Z,97981.28
2023-04-15T03:28:09.351Z,97972.19
2023-04-15T03:30:36.150Z,97992.44
2023-04-15T03:33:03.020Z,97989.16
2023-04-15T03:35:29.957Z,97990.78
2023-04-15T03:37:57.097Z,97994.91
2023-04-15T03:40:23.933Z,97989.00
2023-04-15T03:42:50.970Z,97982.13
2023-04-15T03:45:17.812Z,97986.44
2023-04-15T03:47:44.762Z,97990.00
2023-04-15T03:50:11.630Z,97989.94
2023-04-15T03:52:38.823Z,97991.59
2023-04-15T03:55:05.882Z,97990.81
2023-04-15T03:57:33.196Z,97988.41
2023-04-15T04:00:00.018Z,97986.75
2023-04-15T04:02:28.320Z,97987.59
2023-04-15T04:04:55.347Z,97984.25
2023-04-15T04:07:23.987Z,97997.91
2023-04-15T04:09:50.843Z,97997.91
2023-04-15T04:12:17.663Z,97999.59
2023-04-15T04:14:44.553Z,98000.56
2023-04-15T04:17:11.739Z,98000.63
2023-04-15T04:19:38.607Z,98002.44
2023-04-15T04:22:05.393Z,98012.72
2023-04-15T04:24:32.502Z,98013.66
2023-04-15T04:26:59.726Z,98012.72
2023-04-15T04:29:27.004Z,98008.72
2023-04-15T04:31:53.862Z,98016.22
2023-04-15T04:34:20.687Z,98018.00
2023-04-15T04:36:47.504Z,98019.81
2023-04-15T04:39:14.295Z,98023.31
2023-04-15T04:41:41.194Z,98020.88
2023-04-15T04:44:08.015Z,98022.53
2023-04-15T04:46:34.809Z,98024.19
2023-04-15T04:49:01.849Z,98022.63
2023-04-15T04:51:28.891Z,98029.63
2023-04-15T04:53:56.670Z,98035.53
2023-04-15T04:56:23.498Z,98036.44
2023-04-15T04:58:50.356Z,98031.34
2023-04-15T05:01:17.677Z,98038.19
2023-04-15T05:03:44.703Z,98033.16
2023-04-15T05:06:11.543Z,98030.53
2023-04-15T05:08:40.302Z,98034.84
2023-04-15T05:11:07.344Z,98036.56
2023-04-15T05:13:34.205Z,98034.16
2023-04-15T05:16:01.372Z,98040.94
2023-04-15T05:18:28.301Z,98031.56
2023-04-15T05:20:55.309Z,98027.34
2023-04-15T05:23:22.129Z,98029.78
2023-04-15T05:25:48.939Z,98040.94
2023-04-15T05:28:15.763Z,98040.94
2023-04-15T05:30:42.700Z,98042.78
2023-04-15T05:33:09.512Z,98046.09
2023-04-15T05:35:36.291Z,98048.66
2023-04-15T05:38:03.662Z,98046.09
2023-04-15T05:40:33.237Z,98047.78
2023-04-15T05:43:00.037Z,98049.41
2023-04-15T05:45:27.233Z,98047.63
2023-04-15T05:47:54.590Z,98045.13
2023-04-15T05:50:22.035Z,98047.06
2023-04-15T05:52:48.910Z,98053.69
2023-04-15T05:55:16.112Z,98052.75
2023-04-15T05:57:42.929Z,98053.69
2023-04-15T06:00:10.796Z,98050.28
2023-04-15T06:02:37.850Z,98049.41
2023-04-15T06:05:09.832Z,98052.63
2023-04-15T06:07:37.577Z,98052.75
2023-04-15T06:10:05.919Z,98053.38
2023-04-15T06:12:32.929Z,98051.66
2023-04-15T06:15:00.375Z,98053.38
2023-04-15T06:17:27.462Z,98060.97
2023-04-15T06:19:55.797Z,98053.25
2023-04-15T06:22:23.683Z,98049.72
2023-04-15T06:24:51.578Z,98046.03
2023-04-15T06:27:18.685Z,98058.75
2023-04-15T06:29:45.550Z,98052.63
2023-04-15T06:32:13.032Z,98060.22
2023-04-15T06:34:39.837Z,98054.84
2023-04-15T06:37:06.653Z,98053.94
2023-04-15T06:39:33.571Z,98052.34
2023-04-15T06:42:01.401Z,98053.66
2023-04-15T06:44:28.332Z,98056.00
2023-04-15T06:46:55.140Z,98065.19
2023-04-15T06:49:21.943Z,98038.44
2023-04-15T06:51:48.882Z,98060.59
2023-04-15T06:54:15.765Z,98060.38
2023-04-15T06:56:42.827Z,98060.22
2023-04-15T06:59:09.782Z,98061.75
2023-04-15T07:01:36.722Z,98059.78
2023-04-15T07:04:03.670Z,98058.72
2023-04-15T07:06:30.528Z,98060.25
2023-04-15T07:08:57.456Z,98040.72
2023-04-15T07:11:26.281Z,98043.91
2023-04-15T07:13:53.226Z,98039.22
2023-04-15T07:16:20.099Z,98047.56
2023-04-15T07:18:46.994Z,98036.50
2023-04-15T07:21:13.867Z,98050.66
2023-04-15T07:23:40.877Z,98047.09
2023-04-15T07:26:09.226Z,98048.91
2023-04-15T07:28:36.136Z,98044.44
2023-04-15T07:31:03.034Z,98045.88
2023-04-15T07:33:29.939Z,98039.91
2023-04-15T07:35:56.734Z,98043.84
2023-04-15T07:38:23.629Z,98037.81
2023-04-15T07:40:50.828Z,98052.09
2023-04-15T07:43:17.965Z,98041.78
2023-04-15T07:45:44.765Z,98043.31
2023-04-15T07:48:11.585Z,98037.88
2023-04-15T07:50:38.439Z,98034.38
2023-04-15T07:53:06.295Z,98034.88
2023-04-15T07:55:33.162Z,98039.06
2023-04-15T07:57:59.949Z,98039.06
2023-04-15T08:00:26.961Z,98032.31
2023-04-15T08:02:54.238Z,98039.75
2023-04-15T08:05:21.433Z,98036.31
2023-04-15T08:07:48.275Z,98029.28
2023-04-15T08:10:15.107Z,98022.97
2023-04-15T08:12:41.916Z,98023.50
2023-04-15T08:15:09.366Z,98017.19
2023-04-15T08:17:36.284Z,98022.97
2023-04-15T08:20:05.842Z,98023.09
2023-04-15T08:22:32.734Z,98021.28
2023-04-15T08:24:59.634Z,98013.69
2023-04-15T08:27:26.463Z,98020.22
2023-04-15T08:29:53.538Z,98021.56
2023-04-15T08:32:20.452Z,98018.16
2023-04-15T08:34:47.362Z,98022.06
2023-04-15T08:37:14.199Z,98022.31
2023-04-15T08:39:41.057Z,98018.75
2023-04-15T08:42:17.365Z,98011.75
2023-04-15T08:44:47.011Z,98011.75
2023-04-15T08:47:17.575Z,98010.59
2023-04-15T08:49:44.631Z,98007.84
2023-04-15T08:52:12.261Z,98015.25
2023-04-15T08:54:39.275Z,97994.88
2023-04-15T08:57:07.033Z,98001.03
2023-04-15T08:59:33.992Z,97999.47
2023-04-15T09:02:01.199Z,98000.44
2023-04-15T09:04:28.789Z,98002.53
2023-04-15T09:06:55.629Z,98000.94
2023-04-15T09:09:22.710Z,97999.59
2023-04-15T09:11:51.380Z,97991.28
2023-04-15T09:14:18.295Z,97996.78
2023-04-15T09:17:04.689Z,98002.25
2023-04-15T09:19:34.389Z,97996.59
2023-04-15T09:22:02.298Z,97999.84
2023-04-15T09:24:40.984Z,97994.69
2023-04-15T09:27:07.956Z,98004.13
2023-04-15T09:29:34.963Z,98000.56
2023-04-15T09:32:15.553Z,98007.19
2023-04-15T09:34:42.993Z,97988.69
2023-04-15T09:37:11.217Z,97995.47
2023-04-15T09:39:52.849Z,97976.34
2023-04-15T09:42:26.939Z,98004.88
2023-04-15T09:44:54.018Z,98003.25
2023-04-15T09:47:33.132Z,97998.66
2023-04-15T09:50:01.025Z,97973.47
2023-04-15T09:52:28.799Z,98007.72
2023-04-15T09:55:00.834Z,98000.06
2023-04-15T09:57:36.520Z,98009.03
2023-04-15T10:00:08.884Z,98006.13
2023-04-15T10:02:36.679Z,97994.91
2023-04-15T10:05:04.356Z,98007.41
2023-04-15T10:07:31.994Z,98010.19
2023-04-15T10:10:02.439Z,97992.31
2023-04-15T10:12:31.191Z,98004.00
2023-04-15T10:15:05.239Z,98000.72
2023-04-15T10:17:35.363Z,98013.03
2023-04-15T10:20:04.944Z,98021.00
2023-04-15T10:22:33.028Z,98017.28
2023-04-15T10:25:00.958Z,98021.13
2023-04-15T10:27:29.016Z,98020.22
2023-04-15T10:29:57.236Z,98013.25
2023-04-15T10:32:25.495Z,98019.50
2023-04-15T10:34:54.605Z,98014.09
2023-04-15T10:37:36.893Z,97985.34
2023-04-15T10:40:31.803Z,98020.75
2023-04-15T10:43:01.468Z,98023.25
2023-04-15T10:45:38.573Z,98024.38
2023-04-15T10:48:08.329Z,98027.88
2023-04-15T10:50:37.581Z,98025.91
2023-04-15T10:53:05.241Z,98033.03
2023-04-15T10:55:33.988Z,98023.94
2023-04-15T10:58:02.449Z,98022.34
2023-04-15T11:00:32.053Z,98023.88
2023-04-15T11:03:12.107Z,98038.13
2023-04-15T11:05:42.057Z,98023.66
2023-04-15T11:08:13.286Z,98025.59
2023-04-15T11:10:39.922Z,98024.94
2023-04-15T11:13:18.257Z,98023.75
2023-04-15T11:15:47.245Z,98033.50
2023-04-15T11:18:23.569Z,98025.94
2023-04-15T11:20:56.310Z,98029.03
2023-04-15T11:23:46.751Z,98026.78
2023-04-15T11:26:14.026Z,98031.69
2023-04-15T11:28:43.675Z,98027.31
2023-04-15T11:31:18.468Z,98030.91
2023-04-15T11:34:00.360Z,98031.28
2023-04-15T11:36:29.430Z,98032.19
2023-04-15T11:38:59.525Z,98031.81
2023-04-15T11:41:26.487Z,98031.75
2023-04-15T11:43:53.427Z,98039.44
2023-04-15T11:46:22.726Z,98010.25
2023-04-15T11:48:49.868Z,98036.59
2023-04-15T11:51:16.834Z,98036.47
2023-04-15T11:53:50.524Z,98036.06
2023-04-15T11:56:22.714Z,98040.97
2023-04-15T11:58:53.794Z,98048.81
2023-04-15T12:01:20.643Z,98055.59
2023-04-15T12:03:49.241Z,98052.91
2023-04-15T12:06:23.487Z,98073.53
2023-04-15T12:08:55.862Z,98087.28
2023-04-15T12:11:31.317Z,98091.78
2023-04-15T12:14:16.312Z,98084.78
2023-04-15T12:16:50.063Z,98082.47
2023-04-15T12:19:28.630Z,98082.19
2023-04-15T12:22:01.917Z,98081.16
2023-04-15T12:24:32.865Z,98078.44
2023-04-15T12:27:07.543Z,98086.63
2023-04-15T12:29:37.165Z,98085.69
2023-04-15T12:32:17.366Z,98101.91
2023-04-15T12:34:52.606Z,98107.72
2023-04-15T12:37:19.544Z,98104.91
2023-04-15T12:39:49.297Z,98104.38
2023-04-15T12:42:17.682Z,98119.03
2023-04-15T12:44:44.896Z,98133.88
2023-04-15T12:47:12.842Z,98158.78
2023-04-15T12:49:40.129Z,98167.66
2023-04-15T12:52:06.997Z,98196.41
2023-04-15T12:54:34.777Z,98202.75
2023-04-15T12:57:05.410Z,98201.00
2023-04-15T12:59:33.558Z,98218.72
2023-04-15T13:02:01.179Z,98221.53
2023-04-15T13:04:30.758Z,98211.16
2023-04-15T13:06:58.057Z,98201.91
2023-04-15T13:09:25.113Z,98204.06
2023-04-15T13:11:52.800Z,98207.47
2023-04-15T13:14:20.017Z,98207.00
2023-04-15T13:16:47.165Z,98204.19
2023-04-15T13:19:14.307Z,98205.94
2023-04-15T13:21:41.516Z,98217.41
2023-04-15T13:24:09.381Z,98213.19
2023-04-15T13:26:36.348Z,98214.41
2023-04-15T13:29:03.189Z,98190.66
2023-04-15T13:31:30.020Z,98215.59
2023-04-15T13:33:57.869Z,98223.78
2023-04-15T13:36:24.865Z,98214.69
2023-04-15T13:38:52.049Z,98209.69
2023-04-15T13:41:20.021Z,98219.63
2023-04-15T13:43:47.210Z,98226.47
2023-04-15T13:46:14.247Z,98227.59
2023-04-15T13:48:41.182Z,98237.88
2023-04-15T13:51:07.978Z,98230.38
2023-04-15T13:53:39.210Z,98233.25
2023-04-15T13:56:10.518Z,98234.97
2023-04-15T13:58:38.444Z,98232.88
2023-04-15T14:01:07.126Z,98233.97
2023-04-15T14:03:38.018Z,98223.34
2023-04-15T14:06:06.344Z,98229.53
2023-04-15T14:08:33.661Z,98224.34
2023-04-15T14:11:00.631Z,98221.47
2023-04-15T14:13:27.494Z,98225.25
2023-04-15T14:15:54.353Z,98227.53
2023-04-15T14:18:21.227Z,98243.13
2023-04-15T14:20:48.009Z,98243.75
2023-04-15T14:23:14.835Z,98238.31
2023-04-15T14:25:41.777Z,98238.75
2023-04-15T14:28:08.594Z,98245.97
2023-04-15T14:30:35.836Z,98248.44
2023-04-15T14:33:03.297Z,98249.88
2023-04-15T14:35:30.874Z,98252.88
2023-04-15T14:37:57.943Z,98259.41
2023-04-15T14:40:24.760Z,98266.66
2023-04-15T14:42:51.609Z,98270.44
2023-04-15T14:45:18.432Z,98263.66
2023-04-15T14:47:45.391Z,98282.88
2023-04-15T14:50:12.280Z,98283.09
2023-04-15T14:52:39.237Z,98283.72
2023-04-15T14:55:10.724Z,98286.31
2023-04-15T14:57:38.933Z,98288.53
2023-04-15T15:00:07.468Z,98293.72
2023-04-15T15:05:05.013Z,98301.31
2023-04-15T15:07:31.959Z,98305.69
2023-04-15T15:09:58.790Z,98303.84
2023-04-15T15:12:25.606Z,98307.19
2023-04-15T15:14:52.445Z,98316.06
2023-04-15T15:17:19.257Z,98318.75
2023-04-15T15:19:46.180Z,98327.56
2023-04-15T15:22:13.027Z,98328.97
2023-04-15T15:24:39.930Z,98349.16
2023-04-15T15:27:06.778Z,98340.56
2023-04-15T15:29:33.685Z,98349.78
2023-04-15T15:32:00.594Z,98351.94
2023-04-15T15:34:27.441Z,98355.72
2023-04-15T15:36:55.324Z,98354.63
2023-04-15T15:39:23.902Z,98350.44
2023-04-15T15:41:50.844Z,98351.09
2023-04-15T15:44:17.672Z,98364.25
2023-04-15T15:46:44.751Z,98355.19
2023-04-15T15:49:11.729Z,98354.63
2023-04-15T15:51:38.535Z,98366.19
2023-04-15T15:54:06.005Z,98372.03
2023-04-15T15:56:33.223Z,98371.72
2023-04-15T15:59:00.028Z,98383.41
2023-04-15T16:01:26.887Z,98394.34
2023-04-15T16:03:54.339Z,98387.50
2023-04-15T16:06:21.273Z,98393.06
2023-04-15T16:08:48.078Z,98388.88
2023-04-15T16:11:15.352Z,98386.75
2023-04-15T16:13:42.154Z,98398.59
2023-04-15T16:16:09.039Z,98408.03
2023-04-15T16:18:35.894Z,98411.56
2023-04-15T16:21:02.731Z,98411.75
2023-04-15T16:23:29.613Z,98425.44
2023-04-15T16:25:57.622Z,98426.03
2023-04-15T16:28:26.869Z,98422.31
2023-04-15T16:30:54.858Z,98440.09
2023-04-15T16:33:21.802Z,98440.66
2023-04-15T16:35:48.666Z,98447.59
2023-04-15T16:38:15.628Z,98458.06
2023-04-15T16:40:42.545Z,98457.81
2023-04-15T16:43:11.289Z,98465.00
2023-04-15T16:45:38.502Z,98456.00
2023-04-15T16:48:05.750Z,98472.78
2023-04-15T16:50:32.730Z,98464.25
2023-04-15T16:52:59.654Z,98472.78
2023-04-15T16:55:26.918Z,98470.75
2023-04-15T16:58:02.027Z,98477.78
2023-04-15T17:00:31.587Z,98471.75
2023-04-15T17:03:00.338Z,98478.34
2023-04-15T17:05:27.763Z,98481.59
2023-04-15T17:07:55.171Z,98493.66
2023-04-15T17:10:23.301Z,98493.00
2023-04-15T17:12:52.092Z,98506.06
2023-04-15T17:15:19.701Z,98507.03
2023-04-15T17:17:46.585Z,98505.44
2023-04-15T17:20:13.608Z,98500.91
2023-04-15T17:22:40.615Z,98515.53
2023-04-15T17:25:08.080Z,98508.44
2023-04-15T17:27:34.917Z,98513.13
2023-04-15T17:30:01.901Z,98519.78
2023-04-15T17:32:31.844Z,98529.56
2023-04-15T17:34:58.925Z,98535.78
2023-04-15T17:37:25.911Z,98542.31
2023-04-15T17:39:53.028Z,98533.38
2023-04-15T17:42:20.074Z,98518.50
2023-04-15T17:44:46.917Z,98557.34
2023-04-15T17:47:13.767Z,98556.25
2023-04-15T17:49:40.652Z,98563.34
2023-04-15T17:52:08.034Z,98565.88
2023-04-15T17:54:34.861Z,98570.31
2023-04-15T17:57:03.159Z,98558.63
2023-04-15T17:59:30.234Z,98551.84
2023-04-15T18:01:58.799Z,98563.72
2023-04-15T18:04:26.907Z,98564.28
2023-04-15T18:06:54.553Z,98579.81
2023-04-15T18:09:21.755Z,98577.50
2023-04-15T18:11:48.881Z,98584.69
2023-04-15T18:14:30.799Z,98585.09
2023-04-15T18:17:00.557Z,98591.34
2023-04-15T18:19:27.735Z,98595.13
2023-04-15T18:21:54.584Z,98600.22
2023-04-15T18:24:22.382Z,98604.94
2023-04-15T18:26:49.462Z,98602.22
2023-04-15T18:29:16.515Z,98608.13
2023-04-15T18:31:43.705Z,98611.47
2023-04-15T18:34:10.876Z,98617.25
2023-04-15T18:36:37.750Z,98620.59
2023-04-15T18:39:05.818Z,98610.56
2023-04-15T18:41:32.810Z,98622.59
2023-04-15T18:43:59.602Z,98614.81
2023-04-15T18:46:26.429Z,98622.41
2023-04-15T18:48:53.301Z,98626.88
2023-04-15T18:51:20.447Z,98622.94
2023-04-15T18:53:47.356Z,98630.53
2023-04-15T18:56:14.193Z,98637.38
2023-04-15T18:59:25.429Z,98639.97
2023-04-15T19:01:27.958Z,98652.91
2023-04-15T19:03:54.836Z,98653.84
2023-04-15T19:06:22.305Z,98660.69
2023-04-15T19:08:49.205Z,98661.00
2023-04-15T19:11:16.060Z,98663.00
2023-04-15T19:13:42.920Z,98672.59
2023-04-15T19:16:09.749Z,98665.75
2023-04-15T19:18:36.573Z,98675.34
2023-04-15T19:21:04.024Z,98674.22
2023-04-15T19:23:31.857Z,98669.44
2023-04-15T19:25:58.839Z,98673.69
2023-04-15T19:28:28.146Z,98684.03
2023-04-15T19:30:55.169Z,98678.09
2023-04-15T19:33:22.078Z,98685.13
2023-04-15T19:35:49.952Z,98691.97
2023-04-15T19:38:17.125Z,98687.56
2023-04-15T19:40:44.116Z,98695.63
2023-04-15T19:43:10.981Z,98696.72
2023-04-15T19:45:37.889Z,98690.69
2023-04-15T19:48:06.058Z,98702.34
2023-04-15T19:50:32.990Z,98692.00
2023-04-15T19:52:59.850Z,98694.94
2023-04-15T19:55:26.685Z,98699.28
2023-04-15T19:57:53.577Z,98695.69
2023-04-15T20:00:20.965Z,98693.44
2023-04-15T20:02:47.986Z,98701.19
2023-04-15T20:05:14.957Z,98701.03
2023-04-15T20:07:47.580Z,98699.28
2023-04-15T20:10:14.594Z,98701.88
2023-04-15T20:12:51.590Z,98697.84
2023-04-15T20:15:21.508Z,98696.91
2023-04-15T20:17:48.435Z,98697.31
2023-04-15T20:20:16.102Z,98694.91
2023-04-15T20:22:42.911Z,98697.16
2023-04-15T20:25:09.897Z,98694.56
2023-04-15T20:27:36.698Z,98702.19
2023-04-15T20:30:05.004Z,98697.31
2023-04-15T20:32:35.259Z,98705.78
2023-04-15T20:35:07.055Z,98691.38
2023-04-15T20:37:34.059Z,98683.88
2023-04-15T20:40:01.831Z,98699.66
2023-04-15T20:42:34.228Z,98700.66
2023-04-15T20:45:02.092Z,98695.78
2023-04-15T20:47:29.367Z,98708.13
2023-04-15T20:49:56.279Z,98711.72
2023-04-15T20:52:23.107Z,98708.63
2023-04-15T20:54:50.815Z,98711.16
2023-04-15T20:57:17.980Z,98705.06
2023-04-15T20:59:44.829Z,98703.63
2023-04-15T21:02:11.984Z,98719.81
2023-04-15T21:04:39.008Z,98717.00
2023-04-15T21:07:05.928Z,98718.28
2023-04-15T21:09:51.544Z,98714.19
2023-04-15T21:12:18.951Z,98690.72
2023-04-15T21:14:45.963Z,98724.69
2023-04-15T21:17:13.083Z,98721.38
2023-04-15T21:19:40.595Z,98726.38
2023-04-15T21:22:07.425Z,98727.28
2023-04-15T21:24:34.354Z,98723.81
2023-04-15T21:27:02.028Z,98733.13
2023-04-15T21:29:28.952Z,98738.28
2023-04-15T21:31:55.790Z,98741.44
2023-04-15T21:34:22.633Z,98746.13
2023-04-15T21:36:49.442Z,98744.22
2023-04-15T21:39:17.083Z,98755.25
2023-04-15T21:41:43.948Z,98754.22
2023-04-15T21:44:12.568Z,98751.63
2023-04-15T21:46:41.257Z,98746.03
2023-04-15T21:49:08.309Z,98757.00
2023-04-15T21:51:35.315Z,98758.69
2023-04-15T21:54:02.119Z,98754.50
2023-04-15T21:56:29.009Z,98769.03
2023-04-15T21:58:57.658Z,98773.53
2023-04-15T22:01:25.347Z,98763.19
2023-04-15T22:03:53.026Z,98763.41
2023-04-15T22:06:19.974Z,98766.53
2023-04-15T22:08:56.002Z,98766.00
2023-04-15T22:11:27.860Z,98772.47
2023-04-15T22:13:58.706Z,98776.81
2023-04-15T22:16:26.454Z,98782.06
2023-04-15T22:18:54.028Z,98781.06
2023-04-15T22:21:20.872Z,98770.88
2023-04-15T22:23:48.986Z,98785.69
2023-04-15T22:26:15.929Z,98793.56
2023-04-15T22:28:42.877Z,98786.66
2023-04-15T22:31:10.399Z,98788.13
2023-04-15T22:33:37.344Z,98795.25
2023-04-15T22:36:04.253Z,98793.44
2023-04-15T22:38:31.210Z,98804.25
2023-04-15T22:40:58.382Z,98799.16
2023-04-15T22:43:26.025Z,98797.69
2023-04-15T22:45:54.771Z,98750.75
2023-04-15T22:48:21.792Z,98808.69
2023-04-15T22:50:48.986Z,98812.09
2023-04-15T22:53:17.341Z,98807.91
2023-04-15T22:55:48.486Z,98810.44
2023-04-15T22:58:17.136Z,98815.06
2023-04-15T23:00:44.386Z,98812.31
2023-04-15T23:03:11.545Z,98821.47
2023-04-15T23:05:40.091Z,98823.97
2023-04-15T23:08:08.037Z,98821.47
2023-04-15T23:10:34.914Z,98817.94
2023-04-15T23:13:01.863Z,98813.72
2023-04-15T23:15:28.750Z,98802.75
2023-04-15T23:17:55.661Z,98810.44
2023-04-15T23:20:22.512Z,98816.22
2023-04-15T23:22:49.343Z,98823.03
2023-04-15T23:25:16.267Z,98824.78
2023-04-15T23:27:43.073Z,98824.41
2023-04-15T23:30:10.036Z,98829.00
2023-04-15T23:32:36.903Z,98829.91
2023-04-15T23:35:03.988Z,98838.63
2023-04-15T23:37:31.629Z,98823.28
2023-04-15T23:39:58.657Z,98836.56
2023-04-15T23:42:25.945Z,98842.06
2023-04-15T23:44:53.088Z,98840.59
2023-04-15T23:47:20.001Z,98838.38
2023-04-15T23:49:46.892Z,98841.53
2023-04-15T23:52:13.722Z,98843.13
2023-04-15T23:54:40.656Z,98842.34
2023-04-15T23:57:07.497Z,98835.66
2023-04-15T23:59:34.340Z,98847.59
